This is the latest recevied weather packets stored in our database for station/object KC2WGU. If no packets are shown the sender has not sent any weather packets the latest 10 day(s).
| Time | Temp. | Humidity | Pressure | Rain* | Wind** | Luminosity | Snow |
|---|---|---|---|---|---|---|---|
| 1777863622 | 7.22° C | 70% | 1008.5 hPa | 0 mm | - | 0 W/m² | - |
| 1777863021 | 7.22° C | 71% | 1008.3 hPa | 0 mm | - | 0 W/m² | - |
| 1777862422 | 6.67° C | 73% | 1008.3 hPa | 0 mm | - | 0 W/m² | - |
| 1777861822 | 6.11° C | 77% | 1008.3 hPa | 0 mm | - | 0 W/m² | - |
| 1777861222 | 5° C | 79% | 1008.2 hPa | 0 mm | - | 0 W/m² | - |
| 1777860622 | 5° C | 76% | 1008.3 hPa | 0 mm | - | 0 W/m² | - |
| 1777860021 | 5.56° C | 74% | 1008.3 hPa | 0 mm | - | 0 W/m² | - |
| 1777859422 | 5.56° C | 71% | 1008.2 hPa | 0 mm | - | 0 W/m² | - |
| 1777858821 | 6.11° C | 68% | 1008.2 hPa | 0 mm | - | 0 W/m² | - |
| 1777858222 | 7.22° C | 65% | 1008.3 hPa | 0 mm | - | 0 W/m² | - |
| 1777857621 | 7.22° C | 65% | 1008.2 hPa | 0 mm | - | 0 W/m² | - |
| 1777857022 | 7.22° C | 66% | 1008.2 hPa | 0 mm | - | 0 W/m² | - |
| 1777856421 | 6.67° C | 66% | 1008.2 hPa | 0 mm | - | 0 W/m² | - |
| 1777855822 | 7.78° C | 63% | 1008 hPa | 0 mm | - | 0 W/m² | - |
| 1777855222 | 7.78° C | 61% | 1008 hPa | 0 mm | - | 0 W/m² | - |
| 1777854622 | 8.33° C | 60% | 1007.9 hPa | 0 mm | - | 0 W/m² | - |
| 1777854021 | 8.33° C | 59% | 1007.6 hPa | 0 mm | - | 0 W/m² | - |
| 1777853421 | 8.89° C | 59% | 1007.6 hPa | 0 mm | - | 0 W/m² | - |
| 1777852822 | 9.44° C | 56% | 1007.6 hPa | 0 mm | - | 0 W/m² | - |
| 1777852221 | 9.44° C | 55% | 1007.6 hPa | 0 mm | - | 0 W/m² | - |
| 1777851621 | 10° C | 55% | 1007.7 hPa | 0 mm | - | 0 W/m² | - |
| 1777851022 | 10° C | 55% | 1007.7 hPa | 0 mm | - | 0 W/m² | - |
| 1777850421 | 10° C | 54% | 1007.6 hPa | 0 mm | - | 0 W/m² | - |
| 1777849821 | 10° C | 52% | 1007.5 hPa | 0 mm | - | 0 W/m² | - |
| 1777849221 | 10° C | 53% | 1007.5 hPa | 0 mm | - | 0 W/m² | - |
* Rain latest hour (hover to see other rain measurements)
** Current wind speed in m/s (hover to see current wind gust speed)